sensor_id;sensor_type;location;lat;lon;timestamp;temperature;humidity
11112;DHT22;5609;49.466;8.468;2022-12-07T12:47:43;7.30;99.90
11112;DHT22;5609;49.466;8.468;2022-12-07T12:50:23;7.20;99.90
11112;DHT22;5609;49.466;8.468;2022-12-07T12:53:00;7.20;99.90
11112;DHT22;5609;49.466;8.468;2022-12-07T13:01:46;7.00;99.90
11112;DHT22;5609;49.466;8.468;2022-12-07T13:04:38;7.00;99.90
11112;DHT22;5609;49.466;8.468;2022-12-07T13:07:11;6.90;99.90
11112;DHT22;5609;49.466;8.468;2022-12-07T13:09:43;6.90;99.90
11112;DHT22;5609;49.466;8.468;2022-12-07T13:12:13;6.90;99.90
11112;DHT22;5609;49.466;8.468;2022-12-07T13:14:55;6.90;99.90
11112;DHT22;5609;49.466;8.468;2022-12-07T13:17:56;7.00;99.90
11112;DHT22;5609;49.466;8.468;2022-12-07T13:20:49;6.90;99.90
11112;DHT22;5609;49.466;8.468;2022-12-07T13:23:22;6.90;99.90
11112;DHT22;5609;49.466;8.468;2022-12-07T13:26:12;6.90;99.90
11112;DHT22;5609;49.466;8.468;2022-12-07T13:28:42;6.90;99.90
11112;DHT22;5609;49.466;8.468;2022-12-07T13:31:20;6.90;99.90
11112;DHT22;5609;49.466;8.468;2022-12-07T13:33:50;6.90;99.90
11112;DHT22;5609;49.466;8.468;2022-12-07T13:36:22;6.90;99.90
11112;DHT22;5609;49.466;8.468;2022-12-07T13:38:55;7.00;99.90
11112;DHT22;5609;49.466;8.468;2022-12-07T13:41:23;7.10;99.90
11112;DHT22;5609;49.466;8.468;2022-12-07T13:43:53;7.10;99.90
11112;DHT22;5609;49.466;8.468;2022-12-07T13:46:27;7.10;99.90
11112;DHT22;5609;49.466;8.468;2022-12-07T13:48:58;7.20;99.90
11112;DHT22;5609;49.466;8.468;2022-12-07T13:51:27;7.20;99.90
11112;DHT22;5609;49.466;8.468;2022-12-07T13:53:55;7.20;99.90
11112;DHT22;5609;49.466;8.468;2022-12-07T13:56:28;7.30;99.90
11112;DHT22;5609;49.466;8.468;2022-12-07T13:58:58;7.40;99.90
11112;DHT22;5609;49.466;8.468;2022-12-07T14:01:25;7.50;99.90
11112;DHT22;5609;49.466;8.468;2022-12-07T14:03:52;7.40;99.90
11112;DHT22;5609;49.466;8.468;2022-12-07T14:06:24;7.40;99.90
11112;DHT22;5609;49.466;8.468;2022-12-07T14:09:09;7.30;99.90
11112;DHT22;5609;49.466;8.468;2022-12-07T14:11:43;7.20;99.90
11112;DHT22;5609;49.466;8.468;2022-12-07T14:14:15;7.10;99.90
11112;DHT22;5609;49.466;8.468;2022-12-07T14:16:43;7.00;99.90
11112;DHT22;5609;49.466;8.468;2022-12-07T14:19:44;6.90;99.90
11112;DHT22;5609;49.466;8.468;2022-12-07T14:25:17;6.80;99.90
11112;DHT22;5609;49.466;8.468;2022-12-07T14:27:55;6.80;99.90
11112;DHT22;5609;49.466;8.468;2022-12-07T14:30:25;6.70;99.90
11112;DHT22;5609;49.466;8.468;2022-12-07T14:32:55;6.60;99.90
11112;DHT22;5609;49.466;8.468;2022-12-07T14:35:23;6.70;99.90
11112;DHT22;5609;49.466;8.468;2022-12-07T14:37:52;6.60;99.90
11112;DHT22;5609;49.466;8.468;2022-12-07T14:40:20;6.60;99.90
11112;DHT22;5609;49.466;8.468;2022-12-07T14:42:50;6.60;99.90
11112;DHT22;5609;49.466;8.468;2022-12-07T14:45:20;6.60;99.90
11112;DHT22;5609;49.466;8.468;2022-12-07T14:47:47;6.60;99.90
11112;DHT22;5609;49.466;8.468;2022-12-07T14:50:16;6.60;99.90
11112;DHT22;5609;49.466;8.468;2022-12-07T14:52:47;6.70;99.90
11112;DHT22;5609;49.466;8.468;2022-12-07T14:55:20;6.60;99.90
11112;DHT22;5609;49.466;8.468;2022-12-07T14:57:49;6.60;99.90
11112;DHT22;5609;49.466;8.468;2022-12-07T15:00:16;6.50;99.90
11112;DHT22;5609;49.466;8.468;2022-12-07T15:02:46;6.60;99.90
11112;DHT22;5609;49.466;8.468;2022-12-07T15:05:13;6.50;99.90
11112;DHT22;5609;49.466;8.468;2022-12-07T15:07:41;6.50;99.90
11112;DHT22;5609;49.466;8.468;2022-12-07T15:10:16;6.40;99.90
11112;DHT22;5609;49.466;8.468;2022-12-07T15:12:44;6.40;99.90
11112;DHT22;5609;49.466;8.468;2022-12-07T15:15:12;6.40;99.90
11112;DHT22;5609;49.466;8.468;2022-12-07T15:17:39;6.30;99.90
11112;DHT22;5609;49.466;8.468;2022-12-07T15:20:09;6.30;99.90
11112;DHT22;5609;49.466;8.468;2022-12-07T15:22:37;6.20;99.90
11112;DHT22;5609;49.466;8.468;2022-12-07T15:25:04;6.20;99.90
11112;DHT22;5609;49.466;8.468;2022-12-07T15:27:33;6.20;99.90
11112;DHT22;5609;49.466;8.468;2022-12-07T15:30:00;6.10;99.90
11112;DHT22;5609;49.466;8.468;2022-12-07T15:32:26;6.10;99.90
11112;DHT22;5609;49.466;8.468;2022-12-07T15:34:53;6.20;99.90
11112;DHT22;5609;49.466;8.468;2022-12-07T15:37:20;6.20;99.90
11112;DHT22;5609;49.466;8.468;2022-12-07T15:39:47;6.10;99.90
11112;DHT22;5609;49.466;8.468;2022-12-07T15:42:13;6.10;99.90
11112;DHT22;5609;49.466;8.468;2022-12-07T15:44:42;6.10;99.90
11112;DHT22;5609;49.466;8.468;2022-12-07T15:47:26;6.10;99.90
11112;DHT22;5609;49.466;8.468;2022-12-07T15:49:53;6.10;99.90
11112;DHT22;5609;49.466;8.468;2022-12-07T15:52:21;6.00;99.90
11112;DHT22;5609;49.466;8.468;2022-12-07T15:54:48;6.00;99.90
11112;DHT22;5609;49.466;8.468;2022-12-07T15:57:14;6.00;99.90
11112;DHT22;5609;49.466;8.468;2022-12-07T15:59:42;6.00;99.90
11112;DHT22;5609;49.466;8.468;2022-12-07T16:02:09;6.00;99.90
11112;DHT22;5609;49.466;8.468;2022-12-07T16:04:36;6.00;99.90
11112;DHT22;5609;49.466;8.468;2022-12-07T16:07:03;5.90;99.90
11112;DHT22;5609;49.466;8.468;2022-12-07T16:09:30;5.80;99.90
11112;DHT22;5609;49.466;8.468;2022-12-07T16:11:57;5.80;99.90
11112;DHT22;5609;49.466;8.468;2022-12-07T16:14:24;5.80;99.90
11112;DHT22;5609;49.466;8.468;2022-12-07T16:16:52;5.80;99.90
11112;DHT22;5609;49.466;8.468;2022-12-07T16:19:18;5.80;99.90
11112;DHT22;5609;49.466;8.468;2022-12-07T16:21:45;5.70;99.90
11112;DHT22;5609;49.466;8.468;2022-12-07T16:24:12;5.70;99.90
11112;DHT22;5609;49.466;8.468;2022-12-07T16:26:40;5.70;99.90
11112;DHT22;5609;49.466;8.468;2022-12-07T16:29:10;5.70;99.90
11112;DHT22;5609;49.466;8.468;2022-12-07T16:31:37;5.70;99.90
11112;DHT22;5609;49.466;8.468;2022-12-07T16:34:06;5.60;99.90
11112;DHT22;5609;49.466;8.468;2022-12-07T16:36:33;5.60;99.90
11112;DHT22;5609;49.466;8.468;2022-12-07T16:39:00;5.60;99.90
11112;DHT22;5609;49.466;8.468;2022-12-07T16:41:28;5.60;99.90
11112;DHT22;5609;49.466;8.468;2022-12-07T16:43:54;5.60;99.90
11112;DHT22;5609;49.466;8.468;2022-12-07T16:46:21;5.50;99.90
11112;DHT22;5609;49.466;8.468;2022-12-07T16:48:48;5.50;99.90
11112;DHT22;5609;49.466;8.468;2022-12-07T16:51:17;5.50;99.90
11112;DHT22;5609;49.466;8.468;2022-12-07T16:53:44;5.40;99.90
11112;DHT22;5609;49.466;8.468;2022-12-07T16:56:12;5.40;99.90
11112;DHT22;5609;49.466;8.468;2022-12-07T16:58:40;5.40;99.90
11112;DHT22;5609;49.466;8.468;2022-12-07T17:01:11;5.30;99.90
11112;DHT22;5609;49.466;8.468;2022-12-07T17:03:38;5.30;99.90
11112;DHT22;5609;49.466;8.468;2022-12-07T17:06:12;5.30;99.90
11112;DHT22;5609;49.466;8.468;2022-12-07T17:08:40;5.30;99.90
11112;DHT22;5609;49.466;8.468;2022-12-07T17:11:11;5.30;99.90
11112;DHT22;5609;49.466;8.468;2022-12-07T17:13:38;5.20;99.90
11112;DHT22;5609;49.466;8.468;2022-12-07T17:16:23;5.20;99.90
11112;DHT22;5609;49.466;8.468;2022-12-07T17:18:49;5.20;99.90
11112;DHT22;5609;49.466;8.468;2022-12-07T17:21:16;5.20;99.90
11112;DHT22;5609;49.466;8.468;2022-12-07T17:23:45;5.10;99.90
11112;DHT22;5609;49.466;8.468;2022-12-07T17:26:13;5.20;99.90
11112;DHT22;5609;49.466;8.468;2022-12-07T17:28:41;5.20;99.90
11112;DHT22;5609;49.466;8.468;2022-12-07T17:31:11;5.20;99.90
11112;DHT22;5609;49.466;8.468;2022-12-07T17:33:38;5.20;99.90
11112;DHT22;5609;49.466;8.468;2022-12-07T17:36:10;5.20;99.90
11112;DHT22;5609;49.466;8.468;2022-12-07T17:38:37;5.20;99.90
11112;DHT22;5609;49.466;8.468;2022-12-07T17:41:10;5.20;99.90
11112;DHT22;5609;49.466;8.468;2022-12-07T17:43:37;5.20;99.90
11112;DHT22;5609;49.466;8.468;2022-12-07T17:46:08;5.20;99.90
11112;DHT22;5609;49.466;8.468;2022-12-07T17:48:35;5.20;99.90
11112;DHT22;5609;49.466;8.468;2022-12-07T17:51:03;5.20;99.90
11112;DHT22;5609;49.466;8.468;2022-12-07T17:53:48;5.10;99.90
11112;DHT22;5609;49.466;8.468;2022-12-07T17:56:17;5.10;99.90
11112;DHT22;5609;49.466;8.468;2022-12-07T17:58:44;5.10;99.90
11112;DHT22;5609;49.466;8.468;2022-12-07T18:01:11;5.10;99.90
11112;DHT22;5609;49.466;8.468;2022-12-07T18:03:38;5.00;99.90
11112;DHT22;5609;49.466;8.468;2022-12-07T18:06:05;5.00;99.90
11112;DHT22;5609;49.466;8.468;2022-12-07T18:08:34;5.00;99.90
11112;DHT22;5609;49.466;8.468;2022-12-07T18:11:02;5.10;99.90
11112;DHT22;5609;49.466;8.468;2022-12-07T18:13:31;5.10;99.90
11112;DHT22;5609;49.466;8.468;2022-12-07T18:16:06;5.10;99.90
11112;DHT22;5609;49.466;8.468;2022-12-07T18:18:34;5.10;99.90
11112;DHT22;5609;49.466;8.468;2022-12-07T18:21:02;5.10;99.90
11112;DHT22;5609;49.466;8.468;2022-12-07T18:23:29;5.00;99.90
11112;DHT22;5609;49.466;8.468;2022-12-07T18:25:58;5.00;99.90
11112;DHT22;5609;49.466;8.468;2022-12-07T18:28:25;4.90;99.90
11112;DHT22;5609;49.466;8.468;2022-12-07T18:30:54;5.00;99.90
11112;DHT22;5609;49.466;8.468;2022-12-07T18:33:21;4.90;99.90
11112;DHT22;5609;49.466;8.468;2022-12-07T18:35:48;4.90;99.90
11112;DHT22;5609;49.466;8.468;2022-12-07T18:38:16;4.90;99.90
11112;DHT22;5609;49.466;8.468;2022-12-07T18:40:43;4.80;99.90
11112;DHT22;5609;49.466;8.468;2022-12-07T18:43:11;4.90;99.90
11112;DHT22;5609;49.466;8.468;2022-12-07T18:45:39;4.80;99.90
11112;DHT22;5609;49.466;8.468;2022-12-07T18:48:08;4.80;99.90
11112;DHT22;5609;49.466;8.468;2022-12-07T18:50:35;4.80;99.90
11112;DHT22;5609;49.466;8.468;2022-12-07T18:53:03;4.80;99.90
11112;DHT22;5609;49.466;8.468;2022-12-07T18:55:31;4.80;99.90
11112;DHT22;5609;49.466;8.468;2022-12-07T18:57:59;4.90;99.90
11112;DHT22;5609;49.466;8.468;2022-12-07T19:00:28;4.90;99.90
11112;DHT22;5609;49.466;8.468;2022-12-07T19:02:55;4.90;99.90
11112;DHT22;5609;49.466;8.468;2022-12-07T19:05:23;4.90;99.90
11112;DHT22;5609;49.466;8.468;2022-12-07T19:07:50;4.90;99.90
11112;DHT22;5609;49.466;8.468;2022-12-07T19:10:18;4.90;99.90
11112;DHT22;5609;49.466;8.468;2022-12-07T19:12:46;4.90;99.90
11112;DHT22;5609;49.466;8.468;2022-12-07T19:15:14;4.90;99.90
11112;DHT22;5609;49.466;8.468;2022-12-07T19:17:41;4.90;99.90
11112;DHT22;5609;49.466;8.468;2022-12-07T19:20:12;4.90;99.90
11112;DHT22;5609;49.466;8.468;2022-12-07T19:22:40;4.80;99.90
11112;DHT22;5609;49.466;8.468;2022-12-07T19:25:07;4.80;99.90
11112;DHT22;5609;49.466;8.468;2022-12-07T19:27:34;4.80;99.90
11112;DHT22;5609;49.466;8.468;2022-12-07T19:30:01;4.80;99.90
11112;DHT22;5609;49.466;8.468;2022-12-07T19:32:28;4.80;99.90
11112;DHT22;5609;49.466;8.468;2022-12-07T19:34:56;4.80;99.90
11112;DHT22;5609;49.466;8.468;2022-12-07T19:37:23;4.80;99.90
11112;DHT22;5609;49.466;8.468;2022-12-07T19:39:51;4.80;99.90
11112;DHT22;5609;49.466;8.468;2022-12-07T19:42:18;4.70;99.90
11112;DHT22;5609;49.466;8.468;2022-12-07T19:44:45;4.70;99.90
11112;DHT22;5609;49.466;8.468;2022-12-07T19:47:12;4.60;99.90
11112;DHT22;5609;49.466;8.468;2022-12-07T19:49:43;4.70;99.90
11112;DHT22;5609;49.466;8.468;2022-12-07T19:52:13;4.70;99.90
11112;DHT22;5609;49.466;8.468;2022-12-07T19:54:40;4.70;99.90
11112;DHT22;5609;49.466;8.468;2022-12-07T19:57:12;4.70;99.90
11112;DHT22;5609;49.466;8.468;2022-12-07T19:59:42;4.70;99.90
11112;DHT22;5609;49.466;8.468;2022-12-07T20:02:13;4.70;99.90
11112;DHT22;5609;49.466;8.468;2022-12-07T20:04:41;4.70;99.90
11112;DHT22;5609;49.466;8.468;2022-12-07T20:07:08;4.70;99.90
11112;DHT22;5609;49.466;8.468;2022-12-07T20:09:35;4.70;99.90
11112;DHT22;5609;49.466;8.468;2022-12-07T20:12:03;4.70;99.90
11112;DHT22;5609;49.466;8.468;2022-12-07T20:14:49;4.70;99.90
11112;DHT22;5609;49.466;8.468;2022-12-07T20:17:16;4.70;99.90
11112;DHT22;5609;49.466;8.468;2022-12-07T20:19:46;4.70;99.90
11112;DHT22;5609;49.466;8.468;2022-12-07T20:22:13;4.70;99.90
11112;DHT22;5609;49.466;8.468;2022-12-07T20:24:40;4.60;99.90
11112;DHT22;5609;49.466;8.468;2022-12-07T20:27:07;4.60;99.90
11112;DHT22;5609;49.466;8.468;2022-12-07T20:29:34;4.60;99.90
11112;DHT22;5609;49.466;8.468;2022-12-07T20:35:08;4.50;99.90
11112;DHT22;5609;49.466;8.468;2022-12-07T20:37:49;4.50;99.90
11112;DHT22;5609;49.466;8.468;2022-12-07T20:40:16;4.50;99.90
11112;DHT22;5609;49.466;8.468;2022-12-07T20:42:43;4.40;99.90
11112;DHT22;5609;49.466;8.468;2022-12-07T20:45:15;4.40;99.90
11112;DHT22;5609;49.466;8.468;2022-12-07T20:47:42;4.40;99.90
11112;DHT22;5609;49.466;8.468;2022-12-07T20:50:14;4.40;99.90
11112;DHT22;5609;49.466;8.468;2022-12-07T20:52:43;4.40;99.90
11112;DHT22;5609;49.466;8.468;2022-12-07T20:55:13;4.40;99.90
11112;DHT22;5609;49.466;8.468;2022-12-07T20:57:40;4.40;99.90
11112;DHT22;5609;49.466;8.468;2022-12-07T21:00:08;4.40;99.90
11112;DHT22;5609;49.466;8.468;2022-12-07T21:02:40;4.40;99.90
11112;DHT22;5609;49.466;8.468;2022-12-07T21:05:07;4.40;99.90
11112;DHT22;5609;49.466;8.468;2022-12-07T21:07:37;4.40;99.90
11112;DHT22;5609;49.466;8.468;2022-12-07T21:10:05;4.40;99.90
11112;DHT22;5609;49.466;8.468;2022-12-07T21:12:32;4.40;99.90
11112;DHT22;5609;49.466;8.468;2022-12-07T21:14:59;4.40;99.90
11112;DHT22;5609;49.466;8.468;2022-12-07T21:17:27;4.40;99.90
11112;DHT22;5609;49.466;8.468;2022-12-07T21:19:54;4.40;99.90
11112;DHT22;5609;49.466;8.468;2022-12-07T21:22:58;4.30;99.90
11112;DHT22;5609;49.466;8.468;2022-12-07T21:25:26;4.30;99.90
11112;DHT22;5609;49.466;8.468;2022-12-07T21:27:52;4.30;99.90
11112;DHT22;5609;49.466;8.468;2022-12-07T21:30:20;4.30;99.90
11112;DHT22;5609;49.466;8.468;2022-12-07T21:32:46;4.20;99.90
11112;DHT22;5609;49.466;8.468;2022-12-07T21:35:13;4.20;99.90
11112;DHT22;5609;49.466;8.468;2022-12-07T21:37:41;4.20;99.90
11112;DHT22;5609;49.466;8.468;2022-12-07T21:40:09;4.20;99.90
11112;DHT22;5609;49.466;8.468;2022-12-07T22:46:49;4.20;99.90
